KLEB/LEB METAR and TAF weather

Enter ICAO airport designator
Station Type Date Time Source
KLEB METAR 2019/08/24 21:53 UTC NOAA

KLEB 242153Z 35004KT 10SM OVC065 22/11 A3023 RMK AO2 SLP230 T02220111


Station Type Date Time Source
KLEB Decoded METAR 2019/08/24 21:53 UTC NOAA

Station name not available
Aug 24, 2019 - 05:53 PM EDT / 2019.08.24 2153 UTC
Wind: from the N (350 degrees) at 5 MPH (4 KT):0
Visibility: 10 mile(s):0
Sky conditions: overcast
Temperature: 72.0 F (22.2 C)
Dew Point: 52.0 F (11.1 C)
Relative Humidity: 49%
Pressure (altimeter): 30.23 in. Hg (1023 hPa)
ob: KLEB 242153Z 35004KT 10SM OVC065 22/11 A3023 RMK AO2 SLP230 T02220111
cycle: 22

Station Type Date Time Source
KLEB TAF 2019/08/24 18:24 UTC NOAA

TAF KLEB 241722Z 2418/2518 02012KT P6SM SCT035
FM250000 00000KT P6SM SCT035
FM251000 00000KT 1/2SM FG VV002
FM251300 03003KT P6SM SCT035

Example: see airport list